createdAt,value
2016-07-19T00:00:00.013Z,16.01
2016-07-19T00:00:30.729Z,15.95
2016-07-19T00:01:00.740Z,15.95
2016-07-19T00:01:30.759Z,15.91
2016-07-19T00:02:00.069Z,15.94
2016-07-19T00:02:30.073Z,15.98
2016-07-19T00:03:00.802Z,15.98
2016-07-19T00:03:30.822Z,15.82
2016-07-19T00:04:00.824Z,15.95
2016-07-19T00:04:30.132Z,15.91
2016-07-19T00:05:00.857Z,15.91
2016-07-19T00:05:30.872Z,15.88
2016-07-19T00:06:00.189Z,15.9
2016-07-19T00:06:30.896Z,15.84
2016-07-19T00:07:00.912Z,15.82
2016-07-19T00:07:30.928Z,15.8
2016-07-19T00:08:00.943Z,15.75
2016-07-19T00:08:30.956Z,15.7
2016-07-19T00:09:00.972Z,15.7
2016-07-19T00:09:30.290Z,15.73
2016-07-19T00:10:01.009Z,15.75
2016-07-19T00:10:31.020Z,15.64
2016-07-19T00:11:00.320Z,15.76
2016-07-19T00:11:31.047Z,15.73
2016-07-19T00:12:01.072Z,15.7
2016-07-19T00:12:31.088Z,15.65
2016-07-19T00:13:01.084Z,15.57
2016-07-19T00:13:31.107Z,15.59
2016-07-19T00:14:01.120Z,15.62
2016-07-19T00:14:30.432Z,15.62
2016-07-19T00:15:01.151Z,15.62
2016-07-19T00:15:31.165Z,15.61
2016-07-19T00:16:00.472Z,15.65
2016-07-19T00:16:31.183Z,15.62
2016-07-19T00:17:01.210Z,15.62
2016-07-19T00:17:31.220Z,15.67
2016-07-19T00:18:01.231Z,15.65
2016-07-19T00:18:31.243Z,15.65
2016-07-19T00:19:01.259Z,15.67
2016-07-19T00:19:31.288Z,15.65
2016-07-19T00:20:00.578Z,15.61
2016-07-19T00:20:31.310Z,15.64
2016-07-19T00:21:01.321Z,15.62
2016-07-19T00:21:31.329Z,15.58
2016-07-19T00:22:01.348Z,15.61
2016-07-19T00:22:31.362Z,15.65
2016-07-19T00:23:01.375Z,15.7
2016-07-19T00:23:31.388Z,15.59
2016-07-19T00:24:01.405Z,15.64
2016-07-19T00:24:31.422Z,15.64
2016-07-19T00:25:01.434Z,15.64
2016-07-19T00:25:31.450Z,15.62
2016-07-19T00:26:01.467Z,15.64
2016-07-19T00:26:31.479Z,15.54
2016-07-19T00:27:01.492Z,15.65
2016-07-19T00:27:30.799Z,15.62
2016-07-19T00:28:01.520Z,15.65
2016-07-19T00:28:31.538Z,15.58
2016-07-19T00:29:01.548Z,15.58
2016-07-19T00:29:31.565Z,15.55
2016-07-19T00:30:01.580Z,15.64
2016-07-19T00:30:31.592Z,15.59
2016-07-19T00:31:01.602Z,15.55
2016-07-19T00:31:30.910Z,15.46
2016-07-19T00:32:01.646Z,15.51
2016-07-19T00:32:31.648Z,15.58
2016-07-19T00:33:01.664Z,15.52
2016-07-19T00:33:31.677Z,15.57
2016-07-19T00:34:01.698Z,15.47
2016-07-19T00:35:27.552Z,15.49
2016-07-19T00:35:57.565Z,15.43
2016-07-19T00:36:27.580Z,15.43
2016-07-19T00:36:57.591Z,15.43
2016-07-19T00:37:27.604Z,15.39
2016-07-19T00:37:56.910Z,15.44
2016-07-19T00:38:27.637Z,15.44
2016-07-19T00:38:57.652Z,15.46
2016-07-19T00:39:27.665Z,15.51
2016-07-19T00:39:57.683Z,15.42
2016-07-19T00:40:27.706Z,15.47
2016-07-19T00:40:57.705Z,15.49
2016-07-19T00:41:27.728Z,15.51
2016-07-19T00:41:57.738Z,15.47
2016-07-19T00:42:27.745Z,15.46
2016-07-19T00:42:57.767Z,15.47
2016-07-19T00:43:27.778Z,15.37
2016-07-19T00:43:57.806Z,15.54
2016-07-19T00:44:27.808Z,15.4
2016-07-19T00:44:57.823Z,15.46
2016-07-19T00:45:27.848Z,15.42
2016-07-19T00:45:57.864Z,15.43
2016-07-19T00:46:27.865Z,15.49
2016-07-19T00:46:57.881Z,15.4
2016-07-19T00:47:27.893Z,15.35
2016-07-19T00:47:57.198Z,15.33
2016-07-19T00:48:27.926Z,15.44
2016-07-19T00:48:57.941Z,15.33
2016-07-19T00:49:27.953Z,15.37
2016-07-19T00:49:57.975Z,15.42
2016-07-19T00:50:27.986Z,15.36
2016-07-19T00:50:57.998Z,15.36
2016-07-19T00:51:28.007Z,15.43
2016-07-19T00:51:58.022Z,15.43
2016-07-19T00:52:28.043Z,15.31
2016-07-19T00:52:58.053Z,15.37
2016-07-19T00:53:28.077Z,15.22
2016-07-19T00:53:58.083Z,15.15
2016-07-19T00:54:28.097Z,15.21
2016-07-19T00:54:58.113Z,15.27
2016-07-19T00:55:28.129Z,15.35
2016-07-19T00:55:58.135Z,15.25
2016-07-19T00:56:27.445Z,15.18
2016-07-19T00:56:58.168Z,15.22
2016-07-19T00:57:28.190Z,15.24
2016-07-19T00:57:58.199Z,15.19
2016-07-19T00:58:28.211Z,15.17
2016-07-19T00:58:58.226Z,15.21
2016-07-19T00:59:28.244Z,15.18
2016-07-19T00:59:58.257Z,15.22
2016-07-19T01:00:28.271Z,15.18
2016-07-19T01:00:58.286Z,15.24
2016-07-19T01:01:28.292Z,15.21
2016-07-19T01:01:58.315Z,15.11
2016-07-19T01:02:28.325Z,15.18
2016-07-19T01:02:58.339Z,15.19
2016-07-19T01:03:28.356Z,15.18
2016-07-19T01:03:58.372Z,15.21
2016-07-19T01:04:28.381Z,15.11
2016-07-19T01:05:12.585Z,15.09
2016-07-19T01:05:28.412Z,15.18
2016-07-19T01:05:58.428Z,15.06
2016-07-19T01:06:28.438Z,15.06
2016-07-19T01:06:58.452Z,15.03
2016-07-19T01:07:28.469Z,14.96
2016-07-19T01:07:58.489Z,14.94
2016-07-19T01:08:28.504Z,14.94
2016-07-19T01:08:58.508Z,14.92
2016-07-19T01:09:28.526Z,14.79
2016-07-19T01:09:58.557Z,14.73
2016-07-19T01:10:28.555Z,14.82
2016-07-19T01:10:58.565Z,14.85
2016-07-19T01:11:27.874Z,14.86
2016-07-19T01:11:58.597Z,14.78
2016-07-19T01:12:28.619Z,14.88
2016-07-19T01:12:58.630Z,14.81
2016-07-19T01:13:28.646Z,14.86
2016-07-19T01:13:58.653Z,14.85
2016-07-19T01:14:27.971Z,14.81
2016-07-19T01:14:58.678Z,14.86
2016-07-19T01:15:28.701Z,14.81
2016-07-19T01:15:58.711Z,14.89
2016-07-19T01:16:28.726Z,15
2016-07-19T01:16:58.038Z,15
2016-07-19T01:17:28.757Z,14.97
2016-07-19T01:17:58.772Z,14.94
2016-07-19T01:18:28.079Z,14.88
2016-07-19T01:18:58.800Z,14.92
2016-07-19T01:19:28.820Z,14.92
2016-07-19T01:19:58.834Z,14.96
2016-07-19T01:20:28.841Z,15.04
2016-07-19T01:20:58.861Z,15.02
2016-07-19T01:21:28.876Z,14.96
2016-07-19T01:21:58.885Z,15.04
2016-07-19T01:22:28.901Z,15.04
2016-07-19T01:22:58.919Z,15.03
2016-07-19T01:23:28.931Z,15.03
2016-07-19T01:23:58.939Z,15.03
2016-07-19T01:24:28.955Z,15
2016-07-19T01:24:58.972Z,15.04
2016-07-19T01:25:28.983Z,14.96
2016-07-19T01:25:58.995Z,15.02
2016-07-19T01:26:28.307Z,15
2016-07-19T01:26:59.030Z,14.89
2016-07-19T01:27:29.038Z,14.89
2016-07-19T01:27:59.067Z,14.89
2016-07-19T01:28:29.069Z,14.89
2016-07-19T01:28:59.081Z,14.86
2016-07-19T01:29:28.390Z,14.89
2016-07-19T01:29:59.116Z,14.89
2016-07-19T01:30:29.123Z,14.92
2016-07-19T01:30:59.145Z,14.89
2016-07-19T01:31:29.157Z,14.94
2016-07-19T01:31:58.460Z,14.89
2016-07-19T01:32:29.180Z,14.94
2016-07-19T01:32:58.495Z,14.86
2016-07-19T01:33:28.509Z,14.86
2016-07-19T01:33:59.228Z,14.96
2016-07-19T01:34:29.241Z,14.91
2016-07-19T01:34:59.252Z,14.94
2016-07-19T01:35:29.271Z,14.89
2016-07-19T01:35:59.284Z,14.99
2016-07-19T01:36:29.302Z,14.97
2016-07-19T01:36:58.608Z,14.96
2016-07-19T01:37:29.327Z,14.96
2016-07-19T01:37:59.340Z,14.97
2016-07-19T01:38:29.352Z,14.94
2016-07-19T01:38:59.373Z,14.94
2016-07-19T01:39:29.395Z,15
2016-07-19T01:39:59.399Z,14.94
2016-07-19T01:40:29.412Z,14.97
2016-07-19T01:40:58.715Z,14.96
2016-07-19T01:41:29.447Z,14.94
2016-07-19T01:41:59.458Z,14.92
2016-07-19T01:42:29.464Z,15.02
2016-07-19T01:42:59.483Z,14.92
2016-07-19T01:43:28.791Z,14.97
2016-07-19T01:43:59.517Z,14.88
2016-07-19T01:44:29.530Z,14.97
2016-07-19T01:44:59.540Z,14.88
2016-07-19T01:45:28.847Z,14.88
2016-07-19T01:45:59.566Z,14.85
2016-07-19T01:46:29.581Z,14.89
2016-07-19T01:46:59.602Z,14.79
2016-07-19T01:47:29.610Z,14.85
2016-07-19T01:47:58.918Z,14.82
2016-07-19T01:48:28.221Z,14.82
2016-07-19T01:48:59.657Z,14.85
2016-07-19T01:49:29.672Z,14.78
2016-07-19T01:49:59.678Z,14.82
2016-07-19T01:50:28.993Z,14.77
2016-07-19T01:50:59.717Z,14.73
2016-07-19T01:51:29.727Z,14.73
2016-07-19T01:51:59.034Z,14.65
2016-07-19T01:52:29.759Z,14.7
2016-07-19T01:52:59.764Z,14.66
2016-07-19T01:53:29.777Z,14.7
2016-07-19T01:53:59.795Z,14.78
2016-07-19T01:54:29.812Z,14.69
2016-07-19T01:54:59.820Z,14.81
2016-07-19T01:55:29.847Z,14.72
2016-07-19T01:55:59.149Z,14.77
2016-07-19T01:56:29.159Z,14.78
2016-07-19T01:56:59.882Z,14.73
2016-07-19T01:57:29.902Z,14.84
2016-07-19T01:57:59.908Z,14.81
2016-07-19T01:58:29.926Z,14.78
2016-07-19T01:58:59.937Z,14.79
2016-07-19T01:59:29.248Z,14.7
2016-07-19T01:59:59.979Z,14.77
2016-07-19T02:00:29.978Z,14.77
2016-07-19T02:00:59.999Z,14.81
2016-07-19T02:01:30.012Z,14.69
2016-07-19T02:02:00.024Z,14.81
2016-07-19T02:02:29.332Z,14.77
2016-07-19T02:03:00.059Z,14.66
2016-07-19T02:03:30.069Z,14.7
2016-07-19T02:04:00.077Z,14.65
2016-07-19T02:04:29.379Z,14.73
2016-07-19T02:05:00.114Z,14.7
2016-07-19T02:05:30.122Z,14.65
2016-07-19T02:06:00.138Z,14.7
2016-07-19T02:06:30.150Z,14.65
2016-07-19T02:07:00.173Z,14.77
2016-07-19T02:07:30.179Z,14.69
2016-07-19T02:08:00.194Z,14.65
2016-07-19T02:08:30.211Z,14.62
2016-07-19T02:09:00.229Z,14.59
2016-07-19T02:09:30.249Z,14.51
2016-07-19T02:10:00.255Z,14.54
2016-07-19T02:10:30.268Z,14.62
2016-07-19T02:11:00.275Z,14.54
2016-07-19T02:11:30.303Z,14.65
2016-07-19T02:12:00.307Z,14.58
2016-07-19T02:12:29.613Z,14.6
2016-07-19T02:13:00.342Z,14.63
2016-07-19T02:13:30.359Z,14.53
2016-07-19T02:14:00.364Z,14.6
2016-07-19T02:14:30.385Z,14.66
2016-07-19T02:15:00.399Z,14.51
2016-07-19T02:15:30.421Z,14.58
2016-07-19T02:16:00.424Z,14.55
2016-07-19T02:16:29.733Z,14.69
2016-07-19T02:17:00.450Z,14.6
2016-07-19T02:17:30.480Z,14.6
2016-07-19T02:18:00.486Z,14.59
2016-07-19T02:18:30.500Z,14.62
2016-07-19T02:18:59.999Z,14.55
2016-07-19T02:19:29.814Z,14.66
2016-07-19T02:20:00.544Z,14.66
2016-07-19T02:20:30.548Z,14.65
2016-07-19T02:21:00.566Z,14.66
2016-07-19T02:21:30.580Z,14.66
2016-07-19T02:22:00.594Z,14.68
2016-07-19T02:22:29.900Z,14.7
2016-07-19T02:23:00.628Z,14.62
2016-07-19T02:23:29.931Z,14.68
2016-07-19T02:24:00.649Z,14.63
2016-07-19T02:24:30.666Z,14.62
2016-07-19T02:25:00.693Z,14.6
2016-07-19T02:25:30.693Z,14.63
2016-07-19T02:26:00.709Z,14.63
2016-07-19T02:26:30.721Z,14.63
2016-07-19T02:27:00.734Z,14.54
2016-07-19T02:27:30.750Z,14.55
2016-07-19T02:28:00.766Z,14.6
2016-07-19T02:28:30.781Z,14.68
2016-07-19T02:29:00.787Z,14.66
2016-07-19T02:29:30.806Z,14.69
2016-07-19T02:30:00.820Z,14.65
2016-07-19T02:30:30.840Z,14.66
2016-07-19T02:31:00.847Z,14.73
2016-07-19T02:31:30.869Z,14.66
2016-07-19T02:32:00.873Z,14.69
2016-07-19T02:32:30.890Z,14.66
2016-07-19T02:33:00.904Z,14.68
2016-07-19T02:33:30.926Z,14.72
2016-07-19T02:34:00.931Z,14.78
2016-07-19T02:34:30.954Z,14.7
2016-07-19T02:35:00.964Z,14.68
2016-07-19T02:35:30.975Z,14.77
2016-07-19T02:36:00.995Z,14.65
2016-07-19T02:36:31.011Z,14.69
2016-07-19T02:37:00.305Z,14.69
2016-07-19T02:37:31.030Z,14.66
2016-07-19T02:38:01.051Z,14.68
2016-07-19T02:38:31.071Z,14.72
2016-07-19T02:39:01.075Z,14.81
2016-07-19T02:39:31.087Z,14.81
2016-07-19T02:40:01.104Z,14.62
2016-07-19T02:40:31.117Z,14.66
2016-07-19T02:41:01.131Z,14.63
2016-07-19T02:41:31.145Z,14.63
2016-07-19T02:42:01.161Z,14.72
2016-07-19T02:42:31.176Z,14.63
2016-07-19T02:43:01.191Z,14.62
2016-07-19T02:43:30.500Z,14.63
2016-07-19T02:44:01.221Z,14.53
2016-07-19T02:45:02.600Z,14.43
2016-07-19T02:45:06.189Z,14.45
2016-07-19T02:45:36.205Z,14.44
2016-07-19T02:46:06.218Z,14.47
2016-07-19T02:46:36.232Z,14.45
2016-07-19T02:47:05.536Z,14.4
2016-07-19T02:47:36.261Z,14.35
2016-07-19T02:48:06.282Z,14.4
2016-07-19T02:48:36.285Z,14.37
2016-07-19T02:49:06.305Z,14.33
2016-07-19T02:49:36.318Z,14.43
2016-07-19T02:50:06.330Z,14.32
2016-07-19T02:50:36.348Z,14.3
2016-07-19T02:51:06.355Z,14.3
2016-07-19T02:51:36.370Z,14.32
2016-07-19T02:52:06.387Z,14.29
2016-07-19T02:52:36.398Z,14.3
2016-07-19T02:53:06.420Z,14.3
2016-07-19T02:53:36.429Z,14.3
2016-07-19T02:54:06.445Z,14.33
2016-07-19T02:54:36.459Z,14.3
2016-07-19T02:55:06.473Z,14.35
2016-07-19T02:55:36.491Z,14.29
2016-07-19T02:56:06.501Z,14.3
2016-07-19T02:56:36.518Z,14.32
2016-07-19T02:57:06.534Z,14.25
2016-07-19T02:57:36.542Z,14.23
2016-07-19T02:58:06.562Z,14.23
2016-07-19T02:58:36.574Z,14.22
2016-07-19T02:59:06.587Z,14.23
2016-07-19T02:59:36.595Z,14.3
2016-07-19T03:00:06.618Z,14.32
2016-07-19T03:00:36.633Z,14.32
2016-07-19T03:01:06.646Z,14.3
2016-07-19T03:01:35.947Z,14.18
2016-07-19T03:02:06.677Z,14.26
2016-07-19T03:02:36.695Z,14.26
2016-07-19T03:03:06.701Z,14.23
2016-07-19T03:03:36.718Z,14.22
2016-07-19T03:04:06.730Z,14.2
2016-07-19T03:04:36.752Z,14.3
2016-07-19T03:05:06.752Z,14.2
2016-07-19T03:05:36.062Z,14.33
2016-07-19T03:06:06.785Z,14.22
2016-07-19T03:06:36.803Z,14.26
2016-07-19T03:07:06.809Z,14.33
2016-07-19T03:07:36.832Z,14.4
2016-07-19T03:08:06.847Z,14.3
2016-07-19T03:08:36.863Z,14.29
2016-07-19T03:09:06.871Z,14.23
2016-07-19T03:09:36.896Z,14.25
2016-07-19T03:10:06.902Z,14.15
2016-07-19T03:10:36.912Z,14.26
2016-07-19T03:11:06.224Z,14.25
2016-07-19T03:11:36.940Z,14.3
2016-07-19T03:12:06.246Z,14.33
2016-07-19T03:12:36.966Z,14.32
2016-07-19T03:13:06.993Z,14.3
2016-07-19T03:13:36.995Z,14.28
2016-07-19T03:14:07.013Z,14.33
2016-07-19T03:14:37.023Z,14.29
2016-07-19T03:15:07.055Z,14.29
2016-07-19T03:15:37.055Z,14.32
2016-07-19T03:16:07.067Z,14.4
2016-07-19T03:16:37.098Z,14.33
2016-07-19T03:17:07.102Z,14.32
2016-07-19T03:17:37.125Z,14.28
2016-07-19T03:18:07.125Z,14.3
2016-07-19T03:18:37.137Z,14.3
2016-07-19T03:19:07.158Z,14.41
2016-07-19T03:19:37.174Z,14.36
2016-07-19T03:20:07.184Z,14.37
2016-07-19T03:20:37.195Z,14.35
2016-07-19T03:21:07.207Z,14.45
2016-07-19T03:21:37.227Z,14.37
2016-07-19T03:22:07.235Z,14.47
2016-07-19T03:22:37.256Z,14.33
2016-07-19T03:23:07.267Z,14.33
2016-07-19T03:23:37.277Z,14.41
2016-07-19T03:24:07.296Z,14.37
2016-07-19T03:24:37.302Z,14.43
2016-07-19T03:25:07.322Z,14.33
2016-07-19T03:25:37.344Z,14.36
2016-07-19T03:26:07.355Z,14.45
2016-07-19T03:26:37.381Z,14.4
2016-07-19T03:27:07.379Z,14.36
2016-07-19T03:27:37.399Z,14.36
2016-07-19T03:28:07.412Z,14.33
2016-07-19T03:28:37.425Z,14.44
2016-07-19T03:29:07.438Z,14.37
2016-07-19T03:29:37.450Z,14.29
2016-07-19T03:30:07.461Z,14.3
2016-07-19T03:30:37.476Z,14.29
2016-07-19T03:31:07.496Z,14.32
2016-07-19T03:31:37.507Z,14.26
2016-07-19T03:32:07.518Z,14.32
2016-07-19T03:32:37.536Z,14.3
2016-07-19T03:33:07.553Z,14.26
2016-07-19T03:33:37.571Z,14.32
2016-07-19T03:34:07.572Z,14.3
2016-07-19T03:34:37.593Z,14.32
2016-07-19T03:35:07.603Z,14.44
2016-07-19T03:35:37.634Z,14.3
2016-07-19T03:36:07.633Z,14.37
2016-07-19T03:36:36.935Z,14.44
2016-07-19T03:37:07.663Z,14.37
2016-07-19T03:37:37.677Z,14.33
2016-07-19T03:38:07.692Z,14.44
2016-07-19T03:38:37.714Z,14.32
2016-07-19T03:39:07.722Z,14.33
2016-07-19T03:39:37.728Z,14.33
2016-07-19T03:40:07.750Z,14.41
2016-07-19T03:40:37.765Z,14.3
2016-07-19T03:41:07.774Z,14.41
2016-07-19T03:41:37.793Z,14.33
2016-07-19T03:42:07.806Z,14.37
2016-07-19T03:42:37.831Z,14.44
2016-07-19T03:43:07.833Z,14.45
2016-07-19T03:43:37.856Z,14.32
2016-07-19T03:44:07.867Z,14.43
2016-07-19T03:44:37.869Z,14.28
2016-07-19T03:45:07.891Z,14.36
2016-07-19T03:45:37.914Z,14.32
2016-07-19T03:46:07.926Z,14.29
2016-07-19T03:46:37.223Z,14.28
2016-07-19T03:47:07.944Z,14.22
2016-07-19T03:47:37.957Z,14.29
2016-07-19T03:48:07.974Z,14.2
2016-07-19T03:48:37.276Z,14.25
2016-07-19T03:49:07.297Z,14.33
2016-07-19T03:49:38.034Z,14.4
2016-07-19T03:50:08.029Z,14.4
2016-07-19T03:50:38.043Z,14.54
2016-07-19T03:51:08.064Z,14.6
2016-07-19T03:51:38.080Z,14.51
2016-07-19T03:52:08.082Z,14.51
2016-07-19T03:52:38.109Z,14.54
2016-07-19T03:53:08.115Z,14.72
2016-07-19T03:53:38.135Z,14.55
2016-07-19T03:54:08.150Z,14.63
2016-07-19T03:54:38.161Z,14.66
2016-07-19T03:55:08.172Z,14.53
2016-07-19T03:55:38.191Z,14.58
2016-07-19T03:56:08.197Z,14.6
2016-07-19T03:56:38.214Z,14.51
2016-07-19T03:57:08.225Z,14.58
2016-07-19T03:57:38.243Z,14.68
2016-07-19T03:58:08.258Z,14.54
2016-07-19T03:58:38.275Z,14.53
2016-07-19T03:59:08.283Z,14.53
2016-07-19T03:59:38.301Z,14.54
2016-07-19T04:00:08.319Z,14.54
2016-07-19T04:00:38.323Z,14.68
2016-07-19T04:01:08.337Z,14.7
2016-07-19T04:01:38.352Z,14.88
2016-07-19T04:02:08.368Z,15.03
2016-07-19T04:02:37.675Z,15.14
2016-07-19T04:03:08.398Z,15.19
2016-07-19T04:03:38.407Z,15.27
2016-07-19T04:04:08.424Z,15.4
2016-07-19T04:04:38.450Z,15.44
2016-07-19T04:05:08.459Z,15.52
2016-07-19T04:05:38.467Z,15.52
2016-07-19T04:06:08.483Z,15.4
2016-07-19T04:06:38.494Z,15.24
2016-07-19T04:07:07.801Z,15.14
2016-07-19T04:07:38.529Z,15.11
2016-07-19T04:08:08.545Z,15.06
2016-07-19T04:08:38.557Z,15.02
2016-07-19T04:09:08.575Z,14.94
2016-07-19T04:09:37.871Z,14.99
2016-07-19T04:10:08.596Z,14.84
2016-07-19T04:10:38.616Z,14.78
2016-07-19T04:11:08.626Z,14.85
2016-07-19T04:11:38.634Z,14.78
2016-07-19T04:12:08.659Z,14.86
2016-07-19T04:12:37.978Z,14.77
2016-07-19T04:13:08.684Z,14.77
2016-07-19T04:13:38.695Z,14.78
2016-07-19T04:14:08.718Z,14.78
2016-07-19T04:14:38.726Z,14.85
2016-07-19T04:15:08.739Z,14.79
2016-07-19T04:15:38.756Z,14.79
2016-07-19T04:16:08.769Z,14.73
2016-07-19T04:16:38.083Z,14.88
2016-07-19T04:17:08.086Z,14.85
2016-07-19T04:17:38.815Z,14.88
2016-07-19T04:18:08.826Z,14.81
2016-07-19T04:18:38.846Z,14.85
2016-07-19T04:19:08.856Z,14.79
2016-07-19T04:19:38.871Z,14.73
2016-07-19T04:20:08.885Z,14.68
2016-07-19T04:20:38.895Z,14.78
2016-07-19T04:21:08.915Z,14.68
2016-07-19T04:21:38.923Z,14.77
2016-07-19T04:22:08.945Z,14.66
2016-07-19T04:22:38.953Z,14.78
2016-07-19T04:23:08.965Z,14.85
2016-07-19T04:23:38.980Z,14.79
2016-07-19T04:24:09.001Z,14.82
2016-07-19T04:24:39.008Z,14.85
2016-07-19T04:25:09.029Z,14.82
2016-07-19T04:25:39.048Z,14.82
2016-07-19T04:26:09.068Z,14.77
2016-07-19T04:26:39.064Z,14.78
2016-07-19T04:27:09.087Z,14.81
2016-07-19T04:27:39.093Z,14.77
2016-07-19T04:28:08.399Z,14.86
2016-07-19T04:28:39.122Z,14.78
2016-07-19T04:29:08.430Z,14.82
2016-07-19T04:29:39.155Z,14.78
2016-07-19T04:30:09.165Z,14.84
2016-07-19T04:30:39.176Z,14.82
2016-07-19T04:31:09.194Z,14.78
2016-07-19T04:31:39.212Z,14.81
2016-07-19T04:32:09.221Z,14.86
2016-07-19T04:32:39.257Z,14.81
2016-07-19T04:33:09.250Z,14.94
2016-07-19T04:33:39.266Z,14.94
2016-07-19T04:34:09.282Z,15.02
2016-07-19T04:34:39.298Z,15.02
2016-07-19T04:35:09.307Z,15.02
2016-07-19T04:35:39.327Z,14.94
2016-07-19T04:36:09.336Z,14.94
2016-07-19T04:36:39.352Z,14.88
2016-07-19T04:37:09.366Z,14.89
2016-07-19T04:37:39.381Z,14.81
2016-07-19T04:38:09.396Z,14.82
2016-07-19T04:38:38.699Z,14.82
2016-07-19T04:39:09.426Z,14.82
2016-07-19T04:39:39.447Z,14.78
2016-07-19T04:40:09.457Z,14.77
2016-07-19T04:40:39.468Z,14.72
2016-07-19T04:41:09.479Z,14.82
2016-07-19T04:41:39.492Z,14.81
2016-07-19T04:42:09.511Z,14.89
2016-07-19T04:42:39.526Z,14.84
2016-07-19T04:43:09.536Z,15
2016-07-19T04:43:39.565Z,14.96
2016-07-19T04:44:09.571Z,15.02
2016-07-19T04:44:39.578Z,14.89
2016-07-19T04:45:09.607Z,14.91
2016-07-19T04:45:39.611Z,14.94
2016-07-19T04:46:09.629Z,14.94
2016-07-19T04:46:38.936Z,14.99
2016-07-19T04:47:09.657Z,15.02
2016-07-19T04:47:39.671Z,15.02
2016-07-19T04:48:09.687Z,15.04
2016-07-19T04:48:39.692Z,14.99
2016-07-19T04:49:09.007Z,14.99
2016-07-19T04:49:39.015Z,15.02
2016-07-19T04:50:09.735Z,15.09
2016-07-19T04:50:39.750Z,15.07
2016-07-19T04:51:09.766Z,15.1
2016-07-19T04:51:39.784Z,15.11
2016-07-19T04:52:09.792Z,15.11
2016-07-19T04:52:39.817Z,15.1
2016-07-19T04:53:09.824Z,15.18
2016-07-19T04:53:39.839Z,15.15
2016-07-19T04:54:09.851Z,15.24
2016-07-19T04:54:39.156Z,15.25
2016-07-19T04:55:09.883Z,15.18
2016-07-19T04:55:39.191Z,15.27
2016-07-19T04:56:09.907Z,15.25
2016-07-19T04:56:39.928Z,15.36
2016-07-19T04:57:09.941Z,15.39
2016-07-19T04:57:39.958Z,15.4
2016-07-19T04:58:09.971Z,15.51
2016-07-19T04:58:39.988Z,15.49
2016-07-19T04:59:10.000Z,15.42
2016-07-19T04:59:40.233Z,15.54
2016-07-19T05:00:10.025Z,15.54
2016-07-19T05:00:40.039Z,15.54
2016-07-19T05:01:10.061Z,15.57
2016-07-19T05:01:40.068Z,15.65
2016-07-19T05:02:10.088Z,15.57
2016-07-19T05:02:40.092Z,15.7
2016-07-19T05:03:10.109Z,15.72
2016-07-19T05:03:40.122Z,15.75
2016-07-19T05:04:10.138Z,15.76
2016-07-19T05:04:40.151Z,15.72
2016-07-19T05:05:10.168Z,15.76
2016-07-19T05:05:40.186Z,15.77
2016-07-19T05:06:10.211Z,15.79
2016-07-19T05:06:40.212Z,15.79
2016-07-19T05:07:10.223Z,15.8
2016-07-19T05:07:40.238Z,15.86
2016-07-19T05:08:10.259Z,15.88
2016-07-19T05:08:40.269Z,15.92
2016-07-19T05:09:10.287Z,15.95
2016-07-19T05:09:40.298Z,15.91
2016-07-19T05:10:10.313Z,16.01
2016-07-19T05:10:40.334Z,16
2016-07-19T05:11:10.341Z,16.01
2016-07-19T05:11:39.653Z,16.16
2016-07-19T05:12:10.368Z,16.15
2016-07-19T05:12:40.388Z,16.16
2016-07-19T05:13:10.401Z,16.16
2016-07-19T05:13:39.703Z,16.23
2016-07-19T05:14:10.428Z,16.21
2016-07-19T05:14:40.438Z,16.28
2016-07-19T05:15:10.454Z,16.28
2016-07-19T05:15:39.767Z,16.35
2016-07-19T05:16:09.777Z,16.38
2016-07-19T05:16:40.498Z,16.35
2016-07-19T05:17:10.514Z,16.42
2016-07-19T05:17:40.535Z,16.33
2016-07-19T05:18:10.544Z,16.32
2016-07-19T05:18:40.557Z,16.36
2016-07-19T05:19:09.868Z,16.35
2016-07-19T05:19:40.588Z,16.35
2016-07-19T05:20:10.598Z,16.32
2016-07-19T05:20:40.619Z,16.35
2016-07-19T05:21:10.631Z,16.49
2016-07-19T05:21:40.644Z,16.42
2016-07-19T05:22:10.660Z,16.47
2016-07-19T05:22:40.680Z,16.5
2016-07-19T05:23:10.691Z,16.51
2016-07-19T05:23:40.699Z,16.46
2016-07-19T05:24:10.722Z,16.53
2016-07-19T05:24:40.732Z,16.51
2016-07-19T05:25:10.752Z,16.57
2016-07-19T05:25:40.048Z,16.58
2016-07-19T05:26:10.783Z,16.58
2016-07-19T05:26:40.788Z,16.65
2016-07-19T05:27:10.810Z,16.68
2016-07-19T05:27:40.819Z,16.74
2016-07-19T05:28:10.840Z,16.81
2016-07-19T05:28:40.850Z,16.89
2016-07-19T05:29:10.870Z,16.96
2016-07-19T05:29:40.872Z,17.04
2016-07-19T05:30:10.180Z,17.05
2016-07-19T05:30:40.907Z,17.09
2016-07-19T05:31:09.510Z,17.08
2016-07-19T05:31:40.229Z,17.15
2016-07-19T05:32:10.960Z,17.22
2016-07-19T05:32:40.965Z,17.27
2016-07-19T05:33:10.972Z,17.27
2016-07-19T05:33:40.993Z,17.24
2016-07-19T05:34:11.009Z,17.34
2016-07-19T05:34:41.026Z,17.3
2016-07-19T05:35:10.330Z,17.33
2016-07-19T05:35:40.345Z,17.27
2016-07-19T05:36:11.069Z,17.29
2016-07-19T05:36:40.374Z,17.24
2016-07-19T05:37:10.384Z,17.34
2016-07-19T05:37:41.104Z,17.3
2016-07-19T05:38:11.118Z,17.31
2016-07-19T05:38:41.146Z,17.29
2016-07-19T05:39:10.444Z,17.33
2016-07-19T05:39:41.170Z,17.3
2016-07-19T05:40:11.182Z,17.39
2016-07-19T05:40:41.203Z,17.39
2016-07-19T05:41:11.207Z,17.56
2016-07-19T05:41:41.231Z,17.56
2016-07-19T05:42:11.242Z,17.67
2016-07-19T05:42:41.254Z,17.7
2016-07-19T05:43:11.268Z,17.71
2016-07-19T05:43:41.280Z,17.71
2016-07-19T05:44:11.295Z,17.7
2016-07-19T05:44:41.314Z,17.76
2016-07-19T05:45:11.324Z,17.87
2016-07-19T05:45:41.340Z,17.94
2016-07-19T05:46:10.651Z,17.97
2016-07-19T05:46:41.382Z,18.03
2016-07-19T05:47:11.385Z,18.01
2016-07-19T05:47:41.409Z,18.11
2016-07-19T05:48:11.418Z,18.1
2016-07-19T05:48:41.431Z,18.15
2016-07-19T05:49:11.446Z,18.07
2016-07-19T05:49:41.462Z,18.08
2016-07-19T05:50:11.470Z,18.15
2016-07-19T05:50:41.492Z,18.15
2016-07-19T05:51:11.505Z,18.2
2016-07-19T05:51:41.521Z,18.11
2016-07-19T05:52:11.532Z,18.18
2016-07-19T05:52:41.561Z,18.15
2016-07-19T05:53:11.565Z,18.22
2016-07-19T05:53:41.581Z,18.29
2016-07-19T05:54:11.591Z,18.29
2016-07-19T05:54:41.611Z,18.44
2016-07-19T05:55:11.625Z,18.45
2016-07-19T05:55:41.636Z,18.43
2016-07-19T05:56:11.655Z,18.47
2016-07-19T05:56:41.683Z,18.53
2016-07-19T05:57:11.682Z,18.53
2016-07-19T05:57:41.696Z,18.53
2016-07-19T05:58:11.717Z,18.58
2016-07-19T05:58:41.728Z,18.68
2016-07-19T05:59:11.027Z,18.65
2016-07-19T05:59:41.756Z,18.74
2016-07-19T06:00:11.773Z,18.77
2016-07-19T06:00:41.070Z,18.89
2016-07-19T06:01:11.806Z,18.83
2016-07-19T06:01:41.825Z,18.99
2016-07-19T06:02:11.120Z,19.02
2016-07-19T06:02:41.839Z,19.09
2016-07-19T06:03:11.868Z,19.12
2016-07-19T06:03:41.882Z,19.15
2016-07-19T06:04:11.175Z,19.18
2016-07-19T06:04:41.196Z,19.14
2016-07-19T06:05:11.927Z,19.3
2016-07-19T06:05:41.935Z,19.26
2016-07-19T06:06:11.953Z,19.37
2016-07-19T06:06:41.967Z,19.36
2016-07-19T06:07:11.986Z,19.34
2016-07-19T06:07:41.990Z,19.37
2016-07-19T06:08:12.006Z,19.39
2016-07-19T06:08:42.035Z,19.45
2016-07-19T06:09:11.326Z,19.49
2016-07-19T06:09:41.342Z,19.58
2016-07-19T06:10:12.076Z,19.58
2016-07-19T06:10:42.083Z,19.66
2016-07-19T06:11:12.094Z,19.59
2016-07-19T06:11:42.113Z,19.77
2016-07-19T06:12:12.132Z,19.76
2016-07-19T06:12:42.143Z,19.84
2016-07-19T06:13:12.156Z,19.82
2016-07-19T06:13:42.171Z,19.89
2016-07-19T06:14:11.476Z,19.84
2016-07-19T06:14:41.491Z,19.91
2016-07-19T06:15:12.221Z,19.89
2016-07-19T06:15:42.232Z,19.91
2016-07-19T06:16:11.553Z,19.99
2016-07-19T06:16:42.263Z,20.04
2016-07-19T06:17:12.282Z,20.04
2016-07-19T06:17:41.588Z,20.11
2016-07-19T06:18:12.306Z,20.07
2016-07-19T06:18:42.320Z,20.16
2016-07-19T06:19:12.341Z,20.09
2016-07-19T06:19:42.354Z,20.13
2016-07-19T06:20:12.368Z,20.14
2016-07-19T06:20:42.380Z,20.24
2016-07-19T06:21:12.407Z,20.19
2016-07-19T06:21:42.413Z,20.29
2016-07-19T06:22:12.426Z,20.22
2016-07-19T06:22:42.440Z,20.31
2016-07-19T06:23:12.467Z,20.36
2016-07-19T06:23:42.478Z,20.29
2016-07-19T06:24:12.495Z,20.36
2016-07-19T06:24:42.503Z,20.32
2016-07-19T06:25:12.522Z,20.43
2016-07-19T06:25:42.538Z,20.43
2016-07-19T06:26:11.838Z,20.44
2016-07-19T06:26:42.567Z,20.58
2016-07-19T06:27:12.585Z,20.52
2016-07-19T06:27:42.597Z,20.66
2016-07-19T06:28:12.621Z,20.59
2016-07-19T06:28:42.625Z,20.67